首页
METAR-TAF:

METAR-TAF

机场 :

安曼民航機場

安曼, 约旦

纬度: 31-59N, 经度: 035-59E, 海拔: 767米

当前天气观测

该预报发布于31分钟前的10:00 UTC
静风
温度 22°C
湿度 31%
气压 1018 hPa
能見度: 6000

METAR: OJAM 121000Z 00000KT 6000 NSC 22/04 Q1018 NOSIG

时间: 12:31 (10:31 UTC)

预报

该预报发布于5小时和31分钟前的05:00 UTC
预报有效从12日的 06点(UTC)到 13日的 12点(UTC)
风速10节,风向
能見度: 5000
少量云层高于4000英尺
成为
从 12日的 18点(UTC)到 12日的 20点(UTC)
风速2节,风向多变
能見度: 6000

TAF: OJAM 120500Z 1206/1312 08010KT 5000 HZ FEW040 BECMG 1218/1220 VRB02KT 6000 NSC

超过4000个机场的气象观测和天气预报(METAR&TAF报告)。

可查询的气象台以黄色和红色小点在地图上表示。

将鼠标移到小点上方,可查看气象台名称。

然后点击查看天气观测和预报。

如需切换地图:点击带黑十字的绿色按钮放大地图;点击带横线的绿色按钮缩小地图;或者点击绿色箭头查看邻近地区的地图。


METAR-TAF: